Terminal Aerodrome Forecast
Issued by NWS Charleston, WV

Current Version | Previous Version | Graphics & Text | Print | Product List | Glossary On
Versions: 1 2 3 4 5 6 7 8 9 10 11 12 13 14 15 16 17 18 19 20 21 22 23 24 25 26 27 28 29 30 31 32
000
FTUS41 KRLX 201600 AAC
TAFCRW
TAF AMD
KCRW 201606Z 2016/2112 22007KT P6SM BKN150
     FM201900 23008G18KT P6SM BKN060
     FM210500 23005KT 6SM -SHRA BR OVC045=

USA.gov is the U.S. government's official web portal to all federal, state and local government web resources and services.